Calvert City, KY

1:39 AM CST on January 26, 2015 (GMT -0600)
Calvert City | Change Station
CLOSE
Current Station
Personal Weather Station
Location: Calvert City, KY
Elevation: 364 ft
Nearby Weather Stations

Elev 364 ft 37.02 °N, 88.33 °W | Updated 3 seconds ago

Overcast
Overcast
35.6 °F
Feels Like 29 °F
N
7.6
Wind Variable Wind from NW
Gusts 13.0 mph

Today
High -- | Low -- °F
--% Chance of Precip.
Yesterday
High -- | Low -- °F
Precip. -- in
7:00 AM 5:11 PM
Waxing Crescent, 40% visible
Pressure 29.93 in
Visibility 10.0 miles
Clouds Overcast 1100 ft
Windchill 29 °F
Dew Point 31 °F
Humidity 84%
Rainfall 0.00 in
Snow Depth Not available.
UV 0 out of 12
Pollen .10 out of 12
Air Quality Not available.
Flu Activity Not available.
METAR KM25 260755Z AUTO 34015G21KT 10SM OVC011 01/00 A2993 RMK AO2

More Conditions Fewer Conditions

Pressure 29.93 in
Visibility 10.0 miles
Clouds Overcast 1100 ft
Windchill 29 °F
Dew Point 31 °F
Humidity 84%
Rainfall 0.00 in
Snow Depth Not available.
UV 0 out of 12
Pollen .10 out of 12
Air Quality Not available.
Flu Activity Not available.
METAR KM25 260755Z AUTO 34015G21KT 10SM OVC011 01/00 A2993 RMK AO2

More Conditions Fewer Conditions

10-Day Weather Forecast

Almanac

Astronomy

Jan. 26, 2015 Rise Set
Actual Time
Civil Twilight
Nautical Twilight
Astronomical Twilight
Moon
Length of Visible Light
Length of Day
Tomorrow will be .
, % of the Moon is Illuminated

Today's Extremes

State Highs State Lows

Community

WunderPhotos

Upload Photos

1,790,155 photos uploaded!

WunderBlogs® & News

Nearby

Air Quality

  Air Quality AQ Index Pollutant
Not available.

Snow Depth

Station Depth Elevation

Earthquake Activity

City Distance Mag. Time & Date
Minimum magnitude displayed is 2.5.

Coastal Water Temperatures

Place Temperature

Nearby Weather Stations